Terminal Aerodrome Forecast
Issued by NWS Quad Cities IA IL

Home | Current Version | Previous Version | Graphics & Text | Print | Product List | Glossary On
Versions: 1 2 3 4 5 6 7 8 9 10 11 12 13 14 15 16 17 18 19 20 21
505
FTUS43 KDVN 181444 AAC
TAFMLI
TAF AMD
KMLI 181444Z 1815/1912 26006KT 4SM BR SCT015 BKN050
     FM181600 25007KT P6SM SCT015
     FM181800 23013G20KT P6SM SCT035
     FM182300 23010KT P6SM SKC=

USA.gov is the U.S. government's official web portal to all federal, state and local government web resources and services.